Terminal Aerodrome Forecast
Issued by NWS

Home | Current Version | Previous Version | Text Only | Print | Product List | Glossary On
Versions: 1 2 3 4 5 6 7 8 9 10 11 12 13 14 15 16 17 18 19 20 21
000
FTUS46 KLOX 251209 AAA
TAFLGB
TAF AMD
KLGB 251209Z 2512/2612 VRB05KT P6SM SCT010 BKN120
     FM251700 19008KT P6SM SCT120
     FM260400 VRB05KT P6SM SCT120
     FM261100 VRB05KT 6SM BR BKN010 BKN120=

USA.gov is the U.S. government's official web portal to all federal, state and local government web resources and services.